createdAt,value
2018-04-11T00:02:21.862Z,10.67
2018-04-11T00:04:53.132Z,10.60
2018-04-11T00:07:23.139Z,9.67
2018-04-11T00:09:52.787Z,10.30
2018-04-11T00:12:22.654Z,12.23
2018-04-11T00:14:53.247Z,12.13
2018-04-11T00:17:22.850Z,10.47
2018-04-11T00:19:52.649Z,12.10
2018-04-11T00:22:22.289Z,10.97
2018-04-11T00:24:52.496Z,9.53
2018-04-11T00:27:30.258Z,8.30
2018-04-11T00:30:21.750Z,7.77
2018-04-11T00:32:51.560Z,5.67
2018-04-11T00:35:24.455Z,6.40
2018-04-11T00:37:54.279Z,6.53
2018-04-11T00:40:25.217Z,7.57
2018-04-11T00:42:58.531Z,6.60
2018-04-11T00:45:28.124Z,5.87
2018-04-11T00:47:58.865Z,6.43
2018-04-11T00:50:31.033Z,6.57
2018-04-11T00:53:18.697Z,6.93
2018-04-11T00:55:50.423Z,7.63
2018-04-11T00:58:20.727Z,7.67
2018-04-11T01:00:51.353Z,7.23
2018-04-11T01:03:21.887Z,7.77
2018-04-11T01:05:51.909Z,7.10
2018-04-11T01:08:21.735Z,8.80
2018-04-11T01:10:51.545Z,8.93
2018-04-11T01:13:21.267Z,8.30
2018-04-11T01:15:51.930Z,8.73
2018-04-11T01:18:23.027Z,8.70
2018-04-11T01:20:54.179Z,9.33
2018-04-11T01:23:23.973Z,9.67
2018-04-11T01:25:53.939Z,9.27
2018-04-11T01:28:23.811Z,11.17
2018-04-11T01:30:55.170Z,10.23
2018-04-11T01:33:25.721Z,11.10
2018-04-11T01:35:55.389Z,10.73
2018-04-11T01:38:25.767Z,11.23
2018-04-11T01:40:55.422Z,11.73
2018-04-11T01:43:25.123Z,11.67
2018-04-11T01:45:54.961Z,11.80
2018-04-11T01:48:25.452Z,11.53
2018-04-11T01:50:55.192Z,11.63
2018-04-11T01:53:25.030Z,11.93
2018-04-11T01:55:55.635Z,12.03
2018-04-11T01:58:25.308Z,13.47
2018-04-11T02:00:55.873Z,10.70
2018-04-11T02:03:33.413Z,12.80
2018-04-11T02:06:04.657Z,11.47
2018-04-11T02:08:34.522Z,12.47
2018-04-11T02:11:04.324Z,11.93
2018-04-11T02:13:34.305Z,12.33
2018-04-11T02:16:04.213Z,12.87
2018-04-11T02:18:33.882Z,12.43
2018-04-11T02:21:03.771Z,13.83
2018-04-11T02:23:33.500Z,13.40
2018-04-11T02:26:03.200Z,16.00
2018-04-11T02:28:33.744Z,16.77
2018-04-11T02:31:03.678Z,15.37
2018-04-11T02:33:33.419Z,17.93
2018-04-11T02:36:04.031Z,18.57
2018-04-11T02:38:35.920Z,18.33
2018-04-11T02:41:06.390Z,20.77
2018-04-11T02:43:36.349Z,18.87
2018-04-11T02:46:06.349Z,18.77
2018-04-11T02:48:36.058Z,18.80
2018-04-11T02:51:06.732Z,17.80
2018-04-11T02:53:36.991Z,16.97
2018-04-11T02:56:06.737Z,14.90
2018-04-11T02:58:38.055Z,10.67
2018-04-11T03:01:07.985Z,12.27
2018-04-11T03:03:37.703Z,12.17
2018-04-11T03:06:09.247Z,10.53
2018-04-11T03:08:39.958Z,11.90
2018-04-11T03:11:09.685Z,11.90
2018-04-11T03:13:39.497Z,12.90
2018-04-11T03:16:10.309Z,13.37
2018-04-11T03:18:40.653Z,12.87
2018-04-11T03:21:10.369Z,13.40
2018-04-11T03:23:41.003Z,14.57
2018-04-11T03:26:11.997Z,14.97
2018-04-11T03:28:42.241Z,15.27
2018-04-11T03:31:12.113Z,17.57
2018-04-11T03:33:44.609Z,17.03
2018-04-11T03:36:14.432Z,16.57
2018-04-11T03:38:44.243Z,17.90
2018-04-11T03:41:14.898Z,19.60
2018-04-11T03:43:45.449Z,20.80
2018-04-11T03:46:15.972Z,18.63
2018-04-11T03:48:46.007Z,18.87
2018-04-11T03:51:17.043Z,20.93
2018-04-11T03:53:46.749Z,21.77
2018-04-11T03:56:16.873Z,21.40
2018-04-11T03:58:48.674Z,20.77
2018-04-11T04:01:28.633Z,20.27
2018-04-11T04:04:00.033Z,22.03
2018-04-11T04:06:29.822Z,21.80
2018-04-11T04:08:59.425Z,21.63
2018-04-11T04:11:29.721Z,19.50
2018-04-11T04:14:18.334Z,21.20
2018-04-11T04:17:05.940Z,18.83
2018-04-11T04:19:53.789Z,17.97
2018-04-11T04:22:23.334Z,17.87
2018-04-11T04:24:52.999Z,17.53
2018-04-11T04:27:24.474Z,15.70
2018-04-11T04:29:55.214Z,16.60
2018-04-11T04:32:24.883Z,16.07
2018-04-11T04:34:56.994Z,16.17
2018-04-11T04:37:31.024Z,16.90
2018-04-11T04:40:01.134Z,36.87
2018-04-11T04:42:31.530Z,98.47
2018-04-11T04:45:03.621Z,13.17
2018-04-11T04:47:33.413Z,14.60
2018-04-11T04:50:03.150Z,15.03
2018-04-11T04:52:33.042Z,16.97
2018-04-11T04:55:03.057Z,17.43
2018-04-11T04:57:33.077Z,18.73
2018-04-11T05:00:03.307Z,18.93
2018-04-11T05:02:33.964Z,18.67
2018-04-11T05:05:05.238Z,17.33
2018-04-11T05:07:35.059Z,16.10
2018-04-11T05:10:05.110Z,16.07
2018-04-11T05:12:34.711Z,14.47
2018-04-11T05:15:04.561Z,15.43
2018-04-11T05:17:34.923Z,13.90
2018-04-11T05:20:09.239Z,13.87
2018-04-11T05:22:38.937Z,14.67
2018-04-11T05:25:08.906Z,14.67
2018-04-11T05:27:38.557Z,14.80
2018-04-11T05:30:08.184Z,13.63
2018-04-11T05:32:37.835Z,13.93
2018-04-11T05:35:07.634Z,13.43
2018-04-11T05:37:41.003Z,15.77
2018-04-11T05:40:11.176Z,15.40
2018-04-11T05:42:40.885Z,13.70
2018-04-11T05:45:11.513Z,11.47
2018-04-11T05:47:41.856Z,12.60
2018-04-11T05:50:11.718Z,12.83
2018-04-11T05:52:41.762Z,11.53
2018-04-11T05:55:11.830Z,12.70
2018-04-11T05:57:41.505Z,11.93
2018-04-11T06:00:11.527Z,11.53
2018-04-11T06:02:41.336Z,11.80
2018-04-11T06:05:13.430Z,11.27
2018-04-11T06:07:43.497Z,10.57
2018-04-11T06:10:13.112Z,11.60
2018-04-11T06:12:43.543Z,10.37
2018-04-11T06:15:13.110Z,10.20
2018-04-11T06:17:42.797Z,11.77
2018-04-11T06:20:13.281Z,11.30
2018-04-11T06:22:44.222Z,10.73
2018-04-11T06:25:14.962Z,11.17
2018-04-11T06:27:45.074Z,10.17
2018-04-11T06:30:14.900Z,11.00
2018-04-11T06:32:45.229Z,10.03
2018-04-11T06:35:14.822Z,10.20
2018-04-11T06:37:44.868Z,10.30
2018-04-11T06:40:15.262Z,8.87
2018-04-11T06:42:45.487Z,10.23
2018-04-11T06:45:15.308Z,10.03
2018-04-11T06:47:45.485Z,9.80
2018-04-11T06:50:15.347Z,9.17
2018-04-11T06:52:45.455Z,9.07
2018-04-11T06:55:15.482Z,10.57
2018-04-11T06:57:46.147Z,6.60
2018-04-11T07:00:15.876Z,8.10
2018-04-11T07:02:46.036Z,7.47
2018-04-11T07:05:15.771Z,7.30
2018-04-11T07:07:46.124Z,5.97
2018-04-11T07:10:16.647Z,7.33
2018-04-11T07:12:46.965Z,6.80
2018-04-11T07:15:19.092Z,6.57
2018-04-11T07:17:48.923Z,7.80
2018-04-11T07:20:18.573Z,6.70
2018-04-11T07:22:48.482Z,6.57
2018-04-11T07:25:21.541Z,6.30
2018-04-11T07:27:51.145Z,6.10
2018-04-11T07:30:22.387Z,5.50
2018-04-11T07:32:52.970Z,6.10
2018-04-11T07:35:26.987Z,5.33
2018-04-11T07:37:58.538Z,5.03
2018-04-11T07:40:33.907Z,4.50
2018-04-11T07:43:04.145Z,4.33
2018-04-11T07:45:34.061Z,4.23
2018-04-11T07:48:06.253Z,4.67
2018-04-11T07:50:36.495Z,4.57
2018-04-11T07:53:06.088Z,5.30
2018-04-11T07:55:36.607Z,4.80
2018-04-11T07:58:06.417Z,5.60
2018-04-11T08:00:36.343Z,5.73
2018-04-11T08:03:07.784Z,5.03
2018-04-11T08:05:41.077Z,5.37
2018-04-11T08:08:11.484Z,13.17
2018-04-11T08:10:41.262Z,9.10
2018-04-11T08:13:11.231Z,10.27
2018-04-11T08:15:41.577Z,12.70
2018-04-11T08:18:11.656Z,8.30
2018-04-11T08:20:41.321Z,5.60
2018-04-11T08:23:11.131Z,10.97
2018-04-11T08:25:41.219Z,5.90
2018-04-11T08:28:12.258Z,12.63
2018-04-11T08:30:41.872Z,5.57
2018-04-11T08:33:11.630Z,6.20
2018-04-11T08:35:41.379Z,20.47
2018-04-11T08:38:12.426Z,6.57
2018-04-11T08:40:42.024Z,5.00
2018-04-11T08:43:11.765Z,6.13
2018-04-11T08:45:41.563Z,5.37
2018-04-11T08:48:12.195Z,4.47
2018-04-11T08:50:42.973Z,4.87
2018-04-11T08:53:12.556Z,4.80
2018-04-11T08:55:42.508Z,6.60
2018-04-11T08:58:14.055Z,5.53
2018-04-11T09:00:44.179Z,4.93
2018-04-11T09:03:14.848Z,4.33
2018-04-11T09:05:45.069Z,6.17
2018-04-11T09:08:15.074Z,3.60
2018-04-11T09:10:45.321Z,4.50
2018-04-11T09:13:15.870Z,4.10
2018-04-11T09:15:46.633Z,3.53
2018-04-11T09:18:17.123Z,4.07
2018-04-11T09:20:47.057Z,4.30
2018-04-11T09:23:18.885Z,4.10
2018-04-11T09:25:48.569Z,3.90
2018-04-11T09:28:18.286Z,4.00
2018-04-11T09:30:47.894Z,3.90
2018-04-11T09:33:20.366Z,5.07
2018-04-11T09:35:51.294Z,7.37
2018-04-11T09:38:21.053Z,8.47
2018-04-11T09:40:50.633Z,4.97
2018-04-11T09:43:21.183Z,4.87
2018-04-11T09:45:51.021Z,30.70
2018-04-11T09:48:21.143Z,18.60
2018-04-11T09:50:51.965Z,9.43
2018-04-11T09:53:23.397Z,5.57
2018-04-11T09:55:53.102Z,13.53
2018-04-11T09:58:22.738Z,14.77
2018-04-11T10:00:54.593Z,4.27
2018-04-11T10:03:25.243Z,4.73
2018-04-11T10:05:55.756Z,7.37
2018-04-11T10:08:25.467Z,6.03
2018-04-11T10:10:55.124Z,4.83
2018-04-11T10:13:27.256Z,5.10
2018-04-11T10:15:57.982Z,6.03
2018-04-11T10:18:27.740Z,5.20
2018-04-11T10:20:57.372Z,7.07
2018-04-11T10:23:27.965Z,7.70
2018-04-11T10:25:57.749Z,6.07
2018-04-11T10:28:29.827Z,4.40
2018-04-11T10:30:59.919Z,9.00
2018-04-11T10:33:29.700Z,3.97
2018-04-11T10:35:59.775Z,5.77
2018-04-11T10:38:30.735Z,4.13
2018-04-11T10:41:01.424Z,3.60
2018-04-11T10:43:31.384Z,3.13
2018-04-11T10:46:01.490Z,2.97
2018-04-11T10:48:33.522Z,7.20
2018-04-11T10:51:03.319Z,6.80
2018-04-11T10:53:33.953Z,3.27
2018-04-11T10:56:03.586Z,3.90
2018-04-11T10:58:33.474Z,3.63
2018-04-11T11:01:04.335Z,3.13
2018-04-11T11:03:35.600Z,2.80
2018-04-11T11:06:05.295Z,3.00
2018-04-11T11:08:36.912Z,3.20
2018-04-11T11:11:06.671Z,3.70
2018-04-11T11:13:36.465Z,3.47
2018-04-11T11:16:06.384Z,2.93
2018-04-11T11:18:36.401Z,3.03
2018-04-11T11:21:05.982Z,2.60
2018-04-11T11:23:35.799Z,3.03
2018-04-11T11:26:05.647Z,3.40
2018-04-11T11:28:35.785Z,2.90
2018-04-11T11:31:06.279Z,2.80
2018-04-11T11:33:37.112Z,3.40
2018-04-11T11:36:06.846Z,4.87
2018-04-11T11:38:36.559Z,4.63
2018-04-11T11:41:07.407Z,4.40
2018-04-11T11:43:37.303Z,3.23
2018-04-11T11:46:06.887Z,3.20
2018-04-11T11:48:37.094Z,3.30
2018-04-11T11:51:06.835Z,3.37
2018-04-11T11:53:36.445Z,2.73
2018-04-11T11:56:07.083Z,2.97
2018-04-11T11:58:36.809Z,3.10
2018-04-11T12:01:07.422Z,2.70
2018-04-11T12:03:37.142Z,3.33
2018-04-11T12:06:08.386Z,3.03
2018-04-11T12:08:39.562Z,3.10
2018-04-11T12:11:10.855Z,3.07
2018-04-11T12:25:29.701Z,3.40
2018-04-11T12:27:59.828Z,3.17
2018-04-11T12:30:29.491Z,3.13
2018-04-11T12:32:59.856Z,3.10
2018-04-11T12:35:29.455Z,3.00
2018-04-11T12:37:59.574Z,3.20
2018-04-11T12:40:31.435Z,2.70
2018-04-11T12:43:01.875Z,3.40
2018-04-11T12:45:31.440Z,3.20
2018-04-11T12:48:04.584Z,2.87
2018-04-11T12:50:37.065Z,3.67
2018-04-11T12:53:06.602Z,3.00
2018-04-11T12:55:36.214Z,3.07
2018-04-11T12:58:06.606Z,3.47
2018-04-11T13:00:37.418Z,3.00
2018-04-11T13:03:06.986Z,3.70
2018-04-11T13:05:37.291Z,3.23
2018-04-11T13:08:06.897Z,3.70
2018-04-11T13:10:36.484Z,3.20
2018-04-11T13:13:05.990Z,3.20
2018-04-11T13:15:35.576Z,3.83
2018-04-11T13:18:05.154Z,3.50
2018-04-11T13:20:43.857Z,4.67
2018-04-11T13:23:13.421Z,4.30
2018-04-11T13:25:43.046Z,4.70
2018-04-11T13:28:13.526Z,4.67
2018-04-11T13:30:43.986Z,3.57
2018-04-11T13:33:13.650Z,4.30
2018-04-11T13:35:44.094Z,3.90
2018-04-11T13:38:13.805Z,3.57
2018-04-11T13:40:43.559Z,3.77
2018-04-11T13:43:13.193Z,5.00
2018-04-11T13:45:42.902Z,5.10
2018-04-11T13:48:12.437Z,3.77
2018-04-11T13:50:42.823Z,3.27
2018-04-11T13:53:12.435Z,3.90
2018-04-11T13:55:44.898Z,3.73
2018-04-11T13:58:14.537Z,4.50
2018-04-11T14:00:45.130Z,4.90
2018-04-11T14:03:16.214Z,4.77
2018-04-11T14:05:45.955Z,4.30
2018-04-11T14:08:15.549Z,4.10
2018-04-11T14:10:46.078Z,4.40
2018-04-11T14:13:16.412Z,4.30
2018-04-11T14:15:46.797Z,4.50
2018-04-11T14:18:16.282Z,4.07
2018-04-11T14:20:45.827Z,4.10
2018-04-11T14:23:15.463Z,4.00
2018-04-11T14:25:45.892Z,3.93
2018-04-11T14:28:15.729Z,3.67
2018-04-11T14:30:45.980Z,3.60
2018-04-11T14:33:15.791Z,3.30
2018-04-11T14:35:45.930Z,4.43
2018-04-11T14:38:15.983Z,3.47
2018-04-11T14:40:46.359Z,3.90
2018-04-11T14:43:16.252Z,3.63
2018-04-11T14:45:45.907Z,3.30
2018-04-11T14:48:15.698Z,3.20
2018-04-11T14:50:45.463Z,3.27
2018-04-11T14:53:15.082Z,3.20
2018-04-11T14:55:44.971Z,3.60
2018-04-11T14:58:15.390Z,3.17
2018-04-11T15:00:46.565Z,3.07
2018-04-11T15:03:16.393Z,3.20
2018-04-11T15:05:46.085Z,3.20
2018-04-11T15:08:15.831Z,3.20
2018-04-11T15:10:45.685Z,3.40
2018-04-11T15:13:16.101Z,3.63
2018-04-11T15:15:46.817Z,3.53
2018-04-11T15:18:16.611Z,3.80
2018-04-11T15:20:46.395Z,3.17
2018-04-11T15:23:16.379Z,3.33
2018-04-11T15:25:46.954Z,3.50
2018-04-11T15:28:16.866Z,3.30
2018-04-11T15:30:46.790Z,3.57
2018-04-11T15:33:24.285Z,4.00
2018-04-11T15:35:54.138Z,6.40
2018-04-11T15:38:24.159Z,7.13
2018-04-11T15:40:55.754Z,4.27
2018-04-11T15:43:25.707Z,3.70
2018-04-11T15:45:57.162Z,3.67
2018-04-11T15:48:27.856Z,3.50
2018-04-11T15:50:59.017Z,3.40
2018-04-11T15:53:28.943Z,3.73
2018-04-11T15:55:58.901Z,3.50
2018-04-11T15:58:28.961Z,3.17
2018-04-11T16:00:58.907Z,4.30
2018-04-11T16:03:28.902Z,4.50
2018-04-11T16:05:59.614Z,6.23
2018-04-11T16:08:30.388Z,5.63
2018-04-11T16:11:00.238Z,6.23
2018-04-11T16:13:30.653Z,5.00
2018-04-11T16:16:00.468Z,6.00
2018-04-11T16:18:30.543Z,7.30
2018-04-11T16:21:00.542Z,3.87
2018-04-11T16:23:30.551Z,3.60
2018-04-11T16:26:00.603Z,3.90
2018-04-11T16:28:30.533Z,4.50
2018-04-11T16:31:00.573Z,4.73
2018-04-11T16:33:31.237Z,3.30
2018-04-11T16:36:01.066Z,3.37
2018-04-11T16:38:31.034Z,5.90
2018-04-11T16:41:00.958Z,6.30
2018-04-11T16:43:30.785Z,13.37
2018-04-11T16:46:01.507Z,7.27
2018-04-11T16:48:31.352Z,6.80
2018-04-11T16:51:04.785Z,6.10
2018-04-11T16:53:35.411Z,8.60
2018-04-11T16:56:05.348Z,8.77
2018-04-11T16:58:35.234Z,8.33
2018-04-11T17:01:05.208Z,10.07
2018-04-11T17:03:35.878Z,5.30
2018-04-11T17:06:06.056Z,4.30
2018-04-11T17:19:17.271Z,4.10
2018-04-11T17:22:04.763Z,4.00
2018-04-11T17:24:52.111Z,4.27
2018-04-11T17:27:39.518Z,4.63
2018-04-11T17:30:27.682Z,4.63
2018-04-11T17:32:57.588Z,4.80
2018-04-11T17:35:27.493Z,4.40
2018-04-11T17:37:57.282Z,4.60
2018-04-11T17:40:28.013Z,4.67
2018-04-11T17:42:58.043Z,5.23
2018-04-11T17:52:26.480Z,5.10
2018-04-11T17:54:56.360Z,5.10
2018-04-11T17:57:26.260Z,5.20
2018-04-11T17:59:56.188Z,6.10
2018-04-11T18:02:26.119Z,6.20
2018-04-11T18:04:56.767Z,5.80
2018-04-11T18:07:28.000Z,5.80
2018-04-11T18:09:58.385Z,5.47
2018-04-11T18:12:30.473Z,5.50
2018-04-11T18:15:00.862Z,5.37
2018-04-11T18:17:31.830Z,6.30
2018-04-11T18:20:10.342Z,5.90
2018-04-11T18:22:46.121Z,6.03
2018-04-11T18:25:22.640Z,5.70
2018-04-11T18:27:57.529Z,6.07
2018-04-11T18:30:34.069Z,6.10
2018-04-11T18:33:04.736Z,8.27
2018-04-11T18:35:36.546Z,10.50
2018-04-11T18:38:08.751Z,6.07
2018-04-11T18:40:45.453Z,8.87
2018-04-11T18:43:25.070Z,7.57
2018-04-11T18:46:08.237Z,10.97
2018-04-11T18:48:40.973Z,7.73
2018-04-11T18:51:12.487Z,6.60
2018-04-11T18:53:43.157Z,6.97
2018-04-11T18:56:36.530Z,7.93
2018-04-11T18:59:16.899Z,7.70
2018-04-11T19:01:48.622Z,8.30
2018-04-11T19:04:19.324Z,6.77
2018-04-11T19:06:49.609Z,6.70
2018-04-11T19:09:20.705Z,16.00
2018-04-11T19:11:51.058Z,9.80
2018-04-11T19:14:21.285Z,8.23
2018-04-11T19:16:51.328Z,8.23
2018-04-11T19:19:23.614Z,7.80
2018-04-11T19:21:54.218Z,8.03
2018-04-11T19:24:25.265Z,7.10
2018-04-11T19:26:59.959Z,8.60
2018-04-11T19:29:32.143Z,9.10
2018-04-11T19:32:02.139Z,9.50
2018-04-11T19:34:32.735Z,8.77
2018-04-11T19:37:03.317Z,8.70
2018-04-11T19:39:35.553Z,8.37
2018-04-11T19:42:06.018Z,8.10
2018-04-11T19:44:36.652Z,7.73
2018-04-11T19:47:07.665Z,8.17
2018-04-11T19:49:39.836Z,8.10
2018-04-11T19:52:10.333Z,7.73
2018-04-11T19:54:43.337Z,8.63
2018-04-11T19:57:16.194Z,9.20
2018-04-11T19:59:50.407Z,8.87
2018-04-11T20:02:24.816Z,7.60
2018-04-11T20:04:56.365Z,8.10
2018-04-11T20:07:26.901Z,8.63
2018-04-11T20:10:01.980Z,9.00
2018-04-11T20:12:34.178Z,8.63
2018-04-11T20:15:05.516Z,8.37
2018-04-11T20:17:41.122Z,8.00
2018-04-11T20:20:17.012Z,6.37
2018-04-11T20:22:49.196Z,6.63
2018-04-11T20:25:22.499Z,8.83
2018-04-11T20:27:58.153Z,6.20
2018-04-11T20:30:29.426Z,5.30
2018-04-11T20:33:00.016Z,5.33
2018-04-11T20:35:31.189Z,5.83
2018-04-11T20:38:01.502Z,5.80
2018-04-11T20:40:31.477Z,6.40
2018-04-11T20:43:05.710Z,6.93
2018-04-11T20:45:43.670Z,6.10
2018-04-11T20:48:16.728Z,6.03
2018-04-11T20:50:46.986Z,6.50
2018-04-11T20:53:17.234Z,6.63
2018-04-11T20:55:48.101Z,6.17
2018-04-11T20:58:18.192Z,5.67
2018-04-11T21:00:48.512Z,6.47
2018-04-11T21:03:27.376Z,7.27
2018-04-11T21:05:57.445Z,8.07
2018-04-11T21:08:29.195Z,6.87
2018-04-11T21:10:58.989Z,6.13
2018-04-11T21:13:33.538Z,5.47
2018-04-11T21:16:04.121Z,3.90
2018-04-11T21:18:37.137Z,4.00
2018-04-11T21:21:08.767Z,2.73
2018-04-11T21:23:40.299Z,3.37
2018-04-11T21:26:19.944Z,3.97
2018-04-11T21:28:55.039Z,3.93
2018-04-11T21:31:26.451Z,3.37
2018-04-11T21:33:56.698Z,3.70
2018-04-11T21:36:34.338Z,3.50
2018-04-11T21:39:08.545Z,3.67
2018-04-11T21:41:39.313Z,3.43
2018-04-11T21:44:11.211Z,3.53
2018-04-11T21:46:47.527Z,3.37
2018-04-11T21:49:17.897Z,4.37
2018-04-11T21:51:48.910Z,3.67
2018-04-11T21:54:19.859Z,3.57
2018-04-11T21:56:50.405Z,4.40
2018-04-11T21:59:21.407Z,3.77
2018-04-11T22:01:53.095Z,4.73
2018-04-11T22:04:23.342Z,3.93
2018-04-11T22:06:55.787Z,4.20
2018-04-11T22:09:28.308Z,4.40
2018-04-11T22:11:59.307Z,3.33
2018-04-11T22:14:41.830Z,4.93
2018-04-11T22:17:15.175Z,4.90
2018-04-11T22:19:48.339Z,4.07
2018-04-11T22:22:21.237Z,4.30
2018-04-11T22:24:54.078Z,5.03
2018-04-11T22:27:27.535Z,3.83
2018-04-11T22:29:58.653Z,3.87
2018-04-11T22:32:29.865Z,4.57
2018-04-11T22:35:02.788Z,5.47
2018-04-11T22:37:34.432Z,3.80
2018-04-11T22:40:11.283Z,4.40
2018-04-11T22:42:41.663Z,3.60
2018-04-11T22:45:19.535Z,4.47
2018-04-11T22:47:50.719Z,4.73
2018-04-11T22:50:27.318Z,5.17
2018-04-11T22:52:57.563Z,5.50
2018-04-11T22:55:32.568Z,4.17
2018-04-11T22:58:03.475Z,4.70
2018-04-11T23:00:40.443Z,4.67
2018-04-11T23:03:11.635Z,4.00
2018-04-11T23:05:41.697Z,5.30
2018-04-11T23:08:12.036Z,5.53
2018-04-11T23:10:43.416Z,3.70
2018-04-11T23:13:13.680Z,4.47
2018-04-11T23:15:44.769Z,4.27
2018-04-11T23:18:15.426Z,4.43
2018-04-11T23:20:46.214Z,4.40
2018-04-11T23:23:15.820Z,4.70
2018-04-11T23:25:45.895Z,3.60
2018-04-11T23:28:15.607Z,5.67
2018-04-11T23:30:45.622Z,5.27
2018-04-11T23:33:15.660Z,4.97
2018-04-11T23:35:45.844Z,4.53
2018-04-11T23:38:15.634Z,4.97
2018-04-11T23:40:47.480Z,6.00
2018-04-11T23:43:17.493Z,4.27
2018-04-11T23:45:47.198Z,4.70
2018-04-11T23:48:33.714Z,4.30
2018-04-11T23:51:09.854Z,4.10
2018-04-11T23:53:39.673Z,4.67
2018-04-11T23:56:10.088Z,5.67
2018-04-11T23:58:39.822Z,5.03
